Time;durP1;ratioP1;P1;durP2;ratioP2;P2;SDS_P1;SDS_P2;PMS_P1;PMS_P2;Temp;Humidity;BMP_temperature;BMP_pressure;BME280_temperature;BME280_humidity;BME280_pressure;Samples;Min_cycle;Max_cycle;Signal;HPM_P1;HPM_P2
2023/12/07 00:00:11;;;;;;;0.40;0.40;;;;;;;7.47;93.39;94464.16;4971023;28;20181;-68
2023/12/07 00:02:37;;;;;;;0.40;0.40;;;;;;;7.46;93.22;94467.78;4971170;28;20545;-68
2023/12/07 00:05:03;;;;;;;0.40;0.40;;;;;;;7.39;93.60;94468.78;4971142;28;20181;-68
2023/12/07 00:07:29;;;;;;;0.30;0.30;;;;;;;7.35;93.87;94472.81;4969877;28;20182;-69
2023/12/07 00:09:54;;;;;;;0.40;0.40;;;;;;;7.37;94.19;94474.22;4970929;28;20181;-69
2023/12/07 00:12:19;;;;;;;0.40;0.40;;;;;;;7.39;93.63;94471.41;4970904;28;20190;-69
2023/12/07 00:14:46;;;;;;;0.40;0.40;;;;;;;7.39;93.57;94472.19;4969619;28;20181;-68
2023/12/07 00:17:11;;;;;;;0.47;0.47;;;;;;;7.36;93.19;94479.63;4971053;28;20185;-69
2023/12/07 00:19:37;;;;;;;0.30;0.30;;;;;;;7.38;93.65;94475.81;4971036;28;20174;-69
2023/12/07 00:22:03;;;;;;;0.40;0.40;;;;;;;7.24;93.48;94455.06;4971145;28;20224;-68
2023/12/07 00:24:28;;;;;;;2.87;2.77;;;;;;;7.39;93.47;94476.63;4971139;28;20188;-68
2023/12/07 00:26:54;;;;;;;0.47;0.47;;;;;;;7.31;93.17;94459.31;4970867;28;20177;-68
2023/12/07 00:29:19;;;;;;;0.30;0.30;;;;;;;7.39;94.01;94479.25;4971002;28;20177;-69
2023/12/07 00:31:45;;;;;;;0.30;0.30;;;;;;;7.44;93.85;94472.41;4970181;28;20202;-69
2023/12/07 00:34:10;;;;;;;2.40;2.30;;;;;;;7.27;92.82;94478.22;4970804;28;20213;-69
2023/12/07 00:36:36;;;;;;;0.40;0.40;;;;;;;7.25;93.47;94475.00;4970854;28;20177;-68
2023/12/07 00:39:01;;;;;;;0.40;0.40;;;;;;;7.15;93.60;94470.97;4971305;28;20188;-69
2023/12/07 00:41:27;;;;;;;0.83;0.83;;;;;;;7.12;93.95;94470.56;4974753;28;20296;-69
2023/12/07 00:43:52;;;;;;;0.40;0.40;;;;;;;7.16;94.31;94475.22;4974885;28;20181;-69
2023/12/07 00:46:18;;;;;;;0.40;0.40;;;;;;;7.19;94.57;94480.03;4974707;28;20194;-69
2023/12/07 00:48:43;;;;;;;0.40;0.40;;;;;;;7.20;94.10;94465.94;4974863;28;20178;-69
2023/12/07 00:51:09;;;;;;;0.40;0.40;;;;;;;7.36;94.15;94477.03;4974667;28;20704;-69
2023/12/07 00:53:35;;;;;;;0.40;0.40;;;;;;;7.36;93.89;94474.41;4974654;28;20173;-68
2023/12/07 00:56:02;;;;;;;27.27;17.17;;;;;;;7.36;93.64;94463.94;4974825;28;20284;-68
2023/12/07 00:58:28;;;;;;;0.40;0.40;;;;;;;7.32;93.79;94465.34;4974530;28;20177;-68
2023/12/07 01:00:54;;;;;;;0.43;0.43;;;;;;;7.16;93.99;94443.81;4974673;28;20178;-68
2023/12/07 01:03:19;;;;;;;0.63;0.63;;;;;;;7.30;93.85;94469.97;4974495;28;20208;-68
2023/12/07 01:05:45;;;;;;;0.50;0.50;;;;;;;7.34;93.97;94465.97;4974266;28;20504;-68
2023/12/07 01:08:11;;;;;;;0.50;0.50;;;;;;;7.34;93.24;94466.78;4974376;28;20178;-68
2023/12/07 01:10:36;;;;;;;0.63;0.63;;;;;;;7.34;93.45;94463.34;4974254;28;20178;-69
2023/12/07 01:13:02;;;;;;;0.70;0.70;;;;;;;7.29;93.99;94463.13;4974204;28;20200;-69
2023/12/07 01:15:28;;;;;;;5.00;2.83;;;;;;;7.32;93.84;94466.16;4982833;28;20184;-69
2023/12/07 01:17:53;;;;;;;0.33;0.33;;;;;;;7.36;93.25;94469.97;4993442;28;20184;-69
2023/12/07 01:20:19;;;;;;;0.40;0.40;;;;;;;7.38;93.00;94467.97;4993568;28;20177;-69
2023/12/07 01:22:45;;;;;;;0.60;0.60;;;;;;;7.35;93.12;94464.97;4993450;28;20161;-69
2023/12/07 01:25:11;;;;;;;0.30;0.30;;;;;;;7.37;92.85;94468.97;4993618;28;20180;-69
2023/12/07 01:27:37;;;;;;;0.30;0.30;;;;;;;7.32;93.12;94468.78;4993373;28;20244;-69
2023/12/07 01:30:04;;;;;;;0.30;0.30;;;;;;;7.31;92.79;94463.75;4993344;28;20644;-69
2023/12/07 01:32:30;;;;;;;0.47;0.47;;;;;;;7.29;93.05;94460.50;4993225;28;20220;-69
2023/12/07 01:34:55;;;;;;;0.50;0.50;;;;;;;7.30;93.73;94462.94;4993429;28;20707;-69
2023/12/07 01:37:21;;;;;;;0.87;0.87;;;;;;;7.32;93.98;94460.13;4993200;28;20543;-69
2023/12/07 01:39:46;;;;;;;0.40;0.40;;;;;;;7.26;93.63;94451.25;4993221;28;20189;-69
2023/12/07 01:42:12;;;;;;;1.40;1.40;;;;;;;7.30;93.52;94456.88;4993129;28;20248;-69
2023/12/07 01:44:38;;;;;;;0.50;0.50;;;;;;;7.29;93.21;94450.03;4993232;28;20177;-69
2023/12/07 01:47:05;;;;;;;2.73;2.53;;;;;;;7.39;93.01;94458.31;4992970;28;20213;-69
2023/12/07 01:49:31;;;;;;;0.30;0.30;;;;;;;7.24;92.98;94442.78;4992763;28;20173;-69
2023/12/07 01:51:57;;;;;;;0.30;0.30;;;;;;;7.33;93.16;94456.50;4991791;28;20209;-69
2023/12/07 01:54:23;;;;;;;2.07;1.97;;;;;;;7.28;92.98;94456.28;4993407;28;20268;-69
2023/12/07 01:56:50;;;;;;;0.30;0.30;;;;;;;7.25;93.16;94451.47;4992726;28;20265;-69
2023/12/07 01:59:15;;;;;;;0.50;0.50;;;;;;;7.26;93.54;94455.69;4992786;28;20173;-69
2023/12/07 02:01:41;;;;;;;6.10;2.63;;;;;;;7.27;93.77;94449.41;4992819;28;20181;-69
2023/12/07 02:04:07;;;;;;;0.40;0.40;;;;;;;7.30;93.24;94454.25;4992734;28;20267;-69
2023/12/07 02:06:32;;;;;;;0.40;0.40;;;;;;;7.27;92.80;94449.41;4992880;28;20612;-69
2023/12/07 02:08:57;;;;;;;0.67;0.67;;;;;;;7.20;93.31;94447.63;4992678;28;20232;-69
2023/12/07 02:11:23;;;;;;;0.40;0.40;;;;;;;7.22;93.11;94451.84;4992542;28;20193;-68
2023/12/07 02:13:49;;;;;;;0.30;0.30;;;;;;;7.19;93.31;94458.28;4977638;28;20178;-69
2023/12/07 02:16:29;;;;;;;0.30;0.30;;;;;;;7.14;93.29;94450.22;4973184;28;20201;-69
2023/12/07 02:19:13;;;;;;;0.50;0.50;;;;;;;7.02;93.75;94444.78;4972939;28;20173;-69
2023/12/07 02:21:45;;;;;;;0.40;0.40;;;;;;;7.02;94.26;94446.56;4972934;28;20269;-69
2023/12/07 02:24:13;;;;;;;0.20;0.20;;;;;;;6.81;94.55;94431.88;4973191;28;20636;-69
2023/12/07 02:26:53;;;;;;;0.40;0.40;;;;;;;6.99;94.63;94441.75;4973193;28;20169;-69
2023/12/07 02:29:19;;;;;;;0.40;0.40;;;;;;;6.99;94.35;94439.94;4972909;28;20261;-69
2023/12/07 02:31:45;;;;;;;0.50;0.50;;;;;;;7.02;94.59;94439.53;4972552;28;20646;-69
2023/12/07 02:48:27;;;;;;;0.30;0.30;;;;;;;7.30;94.97;94435.94;4972549;28;20675;-69
2023/12/07 02:50:52;;;;;;;0.47;0.47;;;;;;;7.29;94.56;94439.56;4972563;28;20306;-69
2023/12/07 02:53:18;;;;;;;0.40;0.40;;;;;;;7.28;93.95;94443.19;4972441;28;20193;-69
2023/12/07 02:55:43;;;;;;;0.30;0.30;;;;;;;7.22;94.02;94438.75;4972463;28;20209;-69
2023/12/07 02:58:09;;;;;;;0.30;0.30;;;;;;;7.23;94.22;94440.38;4972676;28;20177;-69
2023/12/07 03:00:34;;;;;;;0.70;0.70;;;;;;;7.23;93.83;94429.91;4972306;28;20273;-69
2023/12/07 03:02:59;;;;;;;0.40;0.40;;;;;;;7.24;94.03;94434.13;4991534;28;20176;-68
2023/12/07 03:05:25;;;;;;;0.50;0.50;;;;;;;7.24;94.03;94442.78;4991578;28;20177;-68
2023/12/07 03:07:50;;;;;;;0.30;0.30;;;;;;;7.27;94.02;94441.56;4991461;28;20710;-69
2023/12/07 03:10:16;;;;;;;0.53;0.53;;;;;;;7.29;93.61;94437.75;4991567;28;20181;-68
2023/12/07 03:12:42;;;;;;;0.57;0.57;;;;;;;7.22;93.33;94442.19;4991385;28;20348;-68
2023/12/07 03:15:09;;;;;;;0.40;0.40;;;;;;;7.20;92.91;94437.16;4991469;28;20185;-68
2023/12/07 03:17:35;;;;;;;0.40;0.40;;;;;;;7.24;93.05;94445.41;4991587;28;20271;-68
2023/12/07 03:20:00;;;;;;;0.40;0.40;;;;;;;7.25;93.14;94447.03;4991146;28;20611;-68
2023/12/07 03:22:25;;;;;;;0.77;0.77;;;;;;;7.27;92.95;94447.59;4991281;28;20173;-69
2023/12/07 03:24:52;;;;;;;1.43;1.33;;;;;;;7.28;92.84;94448.41;4991200;28;20184;-68
2023/12/07 03:27:18;;;;;;;0.40;0.40;;;;;;;7.21;93.04;94448.41;4991295;28;20260;-69
2023/12/07 03:29:43;;;;;;;0.70;0.70;;;;;;;7.17;92.53;94458.50;4991046;28;20310;-68
2023/12/07 03:32:09;;;;;;;0.50;0.50;;;;;;;7.15;92.88;94460.50;4991017;28;20197;-69
2023/12/07 03:34:34;;;;;;;0.50;0.50;;;;;;;7.09;92.60;94460.50;4991041;28;20212;-69
2023/12/07 03:37:00;;;;;;;0.40;0.40;;;;;;;7.09;92.69;94465.75;4991208;28;20177;-69
2023/12/07 03:39:25;;;;;;;6.87;6.10;;;;;;;7.10;93.04;94459.47;4991092;28;20176;-69
2023/12/07 03:41:51;;;;;;;0.50;0.50;;;;;;;7.00;92.69;94448.59;4991011;28;20267;-69
2023/12/07 03:44:17;;;;;;;1.43;1.43;;;;;;;7.14;92.88;94468.56;4990909;28;20331;-69
2023/12/07 03:46:43;;;;;;;0.30;0.30;;;;;;;7.15;92.97;94467.53;4990897;28;20260;-69
2023/12/07 03:49:08;;;;;;;0.40;0.40;;;;;;;7.19;92.91;94460.91;4990801;28;20169;-69
2023/12/07 03:51:36;;;;;;;0.60;0.60;;;;;;;7.24;92.97;94462.94;4990732;28;20250;-69
2023/12/07 03:54:02;;;;;;;3.43;2.70;;;;;;;7.18;92.88;94449.63;4990817;28;20180;-69
2023/12/07 03:56:29;;;;;;;0.40;0.40;;;;;;;7.33;93.34;94461.72;4990657;28;20548;-69
2023/12/07 03:58:56;;;;;;;0.40;0.40;;;;;;;7.30;92.88;94460.31;4990721;28;20193;-69
2023/12/07 04:01:26;;;;;;;0.40;0.40;;;;;;;7.28;92.47;94457.09;4990429;28;20244;-69
2023/12/07 04:03:53;;;;;;;0.40;0.40;;;;;;;7.27;92.44;94458.09;4990414;28;20181;-69
2023/12/07 04:06:18;;;;;;;0.60;0.60;;;;;;;7.27;92.27;94454.66;4990434;28;20212;-68
2023/12/07 04:08:45;;;;;;;0.30;0.30;;;;;;;7.31;92.61;94461.13;4990116;28;20663;-68
2023/12/07 04:11:10;;;;;;;0.60;0.60;;;;;;;7.20;92.75;94450.22;4989786;28;20259;-69
2023/12/07 04:13:36;;;;;;;0.40;0.40;;;;;;;7.31;92.56;94461.94;4988126;28;20256;-69
2023/12/07 04:16:03;;;;;;;0.60;0.60;;;;;;;7.30;92.75;94462.94;4990184;28;20537;-69
2023/12/07 04:18:28;;;;;;;0.40;0.40;;;;;;;7.17;93.08;94447.22;4988869;28;20263;-68
2023/12/07 04:20:54;;;;;;;0.40;0.40;;;;;;;7.31;93.43;94469.78;4990391;28;20720;-68
2023/12/07 04:23:19;;;;;;;0.30;0.30;;;;;;;7.33;92.77;94475.63;4990300;28;20177;-68
2023/12/07 04:25:45;;;;;;;0.50;0.50;;;;;;;7.32;92.83;94471.41;4990002;28;20185;-68
2023/12/07 04:28:10;;;;;;;0.40;0.40;;;;;;;7.32;92.71;94481.06;4990160;28;20238;-68
2023/12/07 04:30:36;;;;;;;0.40;0.40;;;;;;;7.23;92.94;94479.63;4990358;28;20212;-68
2023/12/07 04:33:01;;;;;;;1.07;1.07;;;;;;;7.20;93.22;94479.03;4990216;28;20189;-68
2023/12/07 04:35:28;;;;;;;4.13;3.70;;;;;;;7.16;93.71;94477.81;4990407;28;20180;-68
2023/12/07 04:37:54;;;;;;;0.50;0.50;;;;;;;7.22;93.28;94486.69;4990628;28;20184;-69
2023/12/07 04:40:19;;;;;;;0.53;0.53;;;;;;;7.23;93.95;94488.28;4990113;28;20189;-69
2023/12/07 04:42:45;;;;;;;0.40;0.40;;;;;;;7.18;93.43;94475.78;4989834;28;20205;-69
2023/12/07 04:45:10;;;;;;;0.30;0.30;;;;;;;7.24;93.79;94489.91;4990435;28;20188;-69
2023/12/07 04:47:36;;;;;;;0.50;0.50;;;;;;;7.23;93.32;94493.53;4988778;28;20628;-69
2023/12/07 04:50:01;;;;;;;0.30;0.30;;;;;;;7.22;92.74;94486.69;4990024;28;20291;-69
2023/12/07 04:52:27;;;;;;;5.70;5.40;;;;;;;7.20;92.61;94492.09;4989954;28;20588;-69
2023/12/07 04:54:52;;;;;;;0.40;0.40;;;;;;;7.19;92.63;94490.50;4990186;28;20173;-69
2023/12/07 04:57:18;;;;;;;2.20;2.10;;;;;;;7.20;93.00;94496.53;4978364;28;20174;-70
2023/12/07 04:59:46;;;;;;;0.40;0.40;;;;;;;7.16;92.77;94492.72;4970737;28;20511;-70
2023/12/07 05:02:16;;;;;;;1.13;1.13;;;;;;;7.19;93.13;94495.72;4989915;28;20177;-70
2023/12/07 05:04:42;;;;;;;0.70;0.70;;;;;;;7.17;92.94;94497.75;4989214;28;20221;-69
2023/12/07 05:07:08;;;;;;;0.40;0.40;;;;;;;7.19;92.88;94498.34;4988638;28;20184;-70
2023/12/07 05:09:33;;;;;;;0.43;0.43;;;;;;;7.19;92.92;94506.19;4989795;28;20177;-70
2023/12/07 05:11:59;;;;;;;0.57;0.57;;;;;;;7.19;92.73;94500.16;4989512;28;20565;-70
2023/12/07 05:14:24;;;;;;;1.23;1.23;;;;;;;7.17;92.58;94503.00;4989927;28;20185;-70
2023/12/07 05:16:55;;;;;;;0.40;0.40;;;;;;;7.20;92.57;94504.38;4990024;28;20181;-70
2023/12/07 05:19:21;;;;;;;0.53;0.53;;;;;;;7.19;92.79;94511.44;4988863;28;20243;-70
2023/12/07 05:21:47;;;;;;;0.60;0.60;;;;;;;7.20;92.69;94510.44;4990093;28;20667;-70
2023/12/07 05:24:13;;;;;;;0.40;0.40;;;;;;;7.08;92.61;94491.09;4989849;28;20181;-70
2023/12/07 05:26:41;;;;;;;1.07;1.07;;;;;;;7.16;92.67;94497.94;4991833;28;20308;-70
2023/12/07 05:29:06;;;;;;;0.43;0.43;;;;;;;7.21;92.52;94521.72;4993368;28;20177;-69
2023/12/07 05:31:32;;;;;;;1.30;1.23;;;;;;;7.22;92.54;94520.72;4991917;28;20212;-69
2023/12/07 05:33:57;;;;;;;1.53;1.43;;;;;;;7.22;92.70;94525.13;4980906;28;20174;-69
2023/12/07 05:36:23;;;;;;;0.50;0.50;;;;;;;7.22;92.66;94522.53;4973924;28;20188;-69
2023/12/07 05:38:48;;;;;;;0.40;0.40;;;;;;;7.23;92.33;94521.53;4974148;28;20182;-69
2023/12/07 05:41:14;;;;;;;0.47;0.47;;;;;;;7.24;92.43;94530.97;4973908;28;20288;-69
2023/12/07 05:43:43;;;;;;;0.40;0.40;;;;;;;7.28;92.26;94525.16;4973544;28;20724;-69
2023/12/07 05:46:08;;;;;;;0.40;0.40;;;;;;;7.22;92.83;94525.13;4973939;28;20950;-69
2023/12/07 05:48:33;;;;;;;1.13;1.13;;;;;;;7.23;93.08;94529.38;4973553;28;20186;-69
2023/12/07 05:50:59;;;;;;;1.33;1.23;;;;;;;7.27;93.11;94527.94;4973424;28;20264;-69
2023/12/07 05:53:24;;;;;;;0.30;0.30;;;;;;;7.27;92.94;94523.53;4973708;28;20208;-69
2023/12/07 05:55:50;;;;;;;0.63;0.63;;;;;;;7.25;93.06;94529.97;4973657;28;20181;-69
2023/12/07 05:58:17;;;;;;;0.50;0.50;;;;;;;7.26;93.33;94528.97;4972156;28;20209;-69
2023/12/07 06:00:44;;;;;;;1.63;1.63;;;;;;;7.31;93.21;94534.41;4973980;28;20219;-68
2023/12/07 06:03:09;;;;;;;0.40;0.40;;;;;;;7.33;92.96;94538.47;4978855;28;20649;-68
2023/12/07 06:05:38;;;;;;;0.97;0.90;;;;;;;7.36;93.12;94534.63;4973024;28;20217;-69
2023/12/07 06:08:04;;;;;;;0.40;0.40;;;;;;;7.39;92.61;94539.47;4972984;28;20178;-69
2023/12/07 06:10:30;;;;;;;10.20;1.27;;;;;;;7.34;92.94;94531.41;4972304;28;20193;-69
2023/12/07 06:12:56;;;;;;;2.57;1.40;;;;;;;7.40;92.99;94544.50;4972809;28;20248;-69
2023/12/07 06:15:22;;;;;;;0.70;0.70;;;;;;;7.44;92.67;94539.66;4972747;28;20182;-68
2023/12/07 06:17:48;;;;;;;0.50;0.50;;;;;;;7.47;92.95;94540.09;4972892;28;20660;-69
2023/12/07 06:20:13;;;;;;;0.47;0.47;;;;;;;7.50;92.61;94544.13;4973103;28;20174;-68
2023/12/07 06:22:39;;;;;;;0.57;0.57;;;;;;;7.53;92.96;94543.72;4972984;28;20177;-68
2023/12/07 06:25:05;;;;;;;0.40;0.40;;;;;;;7.56;92.91;94541.50;4972922;28;20256;-68
2023/12/07 06:27:30;;;;;;;6.27;5.83;;;;;;;7.55;92.46;94533.84;4972480;28;20166;-67
2023/12/07 06:29:56;;;;;;;0.40;0.40;;;;;;;7.55;92.67;94542.50;4972573;28;20578;-68
2023/12/07 06:32:21;;;;;;;7.67;0.93;;;;;;;7.56;92.55;94538.88;4972585;28;20272;-69
2023/12/07 06:34:47;;;;;;;1.40;1.30;;;;;;;7.61;92.48;94543.50;4972424;28;20236;-69
2023/12/07 06:37:12;;;;;;;1.50;1.50;;;;;;;7.65;92.95;94544.75;4971953;28;20178;-69
2023/12/07 06:39:38;;;;;;;0.87;0.87;;;;;;;7.56;92.81;94538.88;4972226;28;20637;-70
2023/12/07 06:42:04;;;;;;;1.80;1.80;;;;;;;7.68;92.46;94554.84;4971986;28;20604;-69
2023/12/07 06:44:29;;;;;;;1.67;1.60;;;;;;;7.72;92.23;94560.47;4972399;28;20185;-69
2023/12/07 06:46:55;;;;;;;41.37;36.07;;;;;;;7.75;92.30;94545.16;4972334;28;20177;-70
2023/12/07 06:49:20;;;;;;;1.80;1.70;;;;;;;7.74;92.20;94553.22;4972184;28;20174;-69
2023/12/07 06:51:46;;;;;;;0.37;0.37;;;;;;;7.77;92.41;94564.09;4971956;28;20204;-69
2023/12/07 06:54:11;;;;;;;3.00;2.53;;;;;;;7.81;92.21;94559.25;4972191;28;20182;-69
2023/12/07 06:56:36;;;;;;;0.53;0.53;;;;;;;7.84;91.90;94564.09;4972349;28;20199;-69
2023/12/07 06:59:02;;;;;;;0.50;0.50;;;;;;;7.86;91.53;94568.16;4971736;28;20209;-69
2023/12/07 07:01:28;;;;;;;0.40;0.40;;;;;;;7.84;91.45;94562.28;4971582;28;20228;-69
2023/12/07 07:03:53;;;;;;;0.40;0.40;;;;;;;7.89;91.75;94559.88;4971977;28;20184;-69
2023/12/07 07:06:18;;;;;;;3.07;2.87;;;;;;;7.93;91.37;94568.16;4972005;28;20256;-69
2023/12/07 07:08:44;;;;;;;4.03;3.83;;;;;;;7.95;91.37;94566.13;4971953;28;20178;-69
2023/12/07 07:11:16;;;;;;;0.30;0.30;;;;;;;7.88;91.26;94553.00;4971305;28;20224;-69
2023/12/07 07:13:41;;;;;;;63.40;10.00;;;;;;;8.02;91.13;94566.13;4971315;28;20190;-69
2023/12/07 07:16:08;;;;;;;0.60;0.60;;;;;;;7.89;91.21;94551.19;4980450;28;20646;-68
2023/12/07 07:18:35;;;;;;;1.03;1.03;;;;;;;8.00;90.87;94568.94;4991074;28;20181;-68
2023/12/07 07:21:00;;;;;;;0.40;0.40;;;;;;;8.03;91.09;94573.00;4991101;28;20168;-69
2023/12/07 07:23:26;;;;;;;1.80;0.80;;;;;;;8.04;90.77;94574.59;4991168;28;20178;-68
2023/12/07 07:25:51;;;;;;;0.47;0.47;;;;;;;8.00;90.84;94582.06;4990821;28;20177;-68
2023/12/07 07:28:17;;;;;;;0.60;0.60;;;;;;;7.98;90.85;94578.81;4979259;28;20178;-68
2023/12/07 07:30:43;;;;;;;0.47;0.47;;;;;;;7.85;90.71;94566.53;4971745;28;20173;-68
2023/12/07 07:33:08;;;;;;;0.40;0.40;;;;;;;7.95;90.66;94587.91;4971713;28;20194;-69
2023/12/07 07:35:34;;;;;;;2.30;2.07;;;;;;;7.96;90.14;94591.31;4971119;28;20253;-68
2023/12/07 07:37:59;;;;;;;0.60;0.60;;;;;;;7.94;89.93;94590.72;4971631;28;20662;-68
2023/12/07 07:40:25;;;;;;;2.40;2.30;;;;;;;7.91;89.93;94591.91;4968198;28;20185;-68
2023/12/07 07:42:51;;;;;;;0.63;0.63;;;;;;;7.85;89.80;94605.84;4969569;28;20329;-68
2023/12/07 07:45:16;;;;;;;0.30;0.30;;;;;;;7.75;88.77;94602.78;4971318;28;20276;-68
2023/12/07 07:47:42;;;;;;;0.50;0.50;;;;;;;7.62;88.75;94597.50;4969774;28;20166;-68
2023/12/07 07:50:07;;;;;;;0.50;0.50;;;;;;;7.50;89.00;94584.22;4969166;28;20781;-69
2023/12/07 07:52:34;;;;;;;0.47;0.47;;;;;;;7.46;89.18;94582.19;4970483;28;20695;-69
2023/12/07 07:55:06;;;;;;;0.40;0.40;;;;;;;7.48;89.51;94601.94;4969865;28;20182;-68
2023/12/07 07:57:31;;;;;;;2.00;1.90;;;;;;;7.45;90.50;94606.75;4976424;28;20356;-67
2023/12/07 07:59:57;;;;;;;0.40;0.40;;;;;;;7.39;90.43;94597.88;4970557;28;21034;-68
2023/12/07 08:02:23;;;;;;;0.57;0.57;;;;;;;7.51;89.86;94617.25;4969234;28;20178;-69
2023/12/07 08:04:49;;;;;;;0.60;0.60;;;;;;;7.50;90.04;94618.25;4970142;28;20672;-70
2023/12/07 08:07:15;;;;;;;1.10;1.10;;;;;;;7.38;89.89;94606.72;4970504;28;20712;-69
2023/12/07 08:09:40;;;;;;;0.50;0.50;;;;;;;7.39;89.70;94610.97;4968721;28;20255;-69
2023/12/07 08:12:08;;;;;;;0.87;0.87;;;;;;;7.20;89.31;94607.28;4970249;28;20886;-69
2023/12/07 08:14:35;;;;;;;0.40;0.40;;;;;;;7.20;89.15;94624.78;4969836;28;20190;-69
2023/12/07 08:17:01;;;;;;;0.30;0.30;;;;;;;7.01;89.50;94610.63;4969121;28;20182;-68
2023/12/07 08:19:26;;;;;;;0.40;0.40;;;;;;;7.07;90.00;94625.56;4969910;28;20184;-68
2023/12/07 08:21:52;;;;;;;1.03;1.03;;;;;;;7.09;89.88;94633.22;4969181;28;20208;-68
2023/12/07 08:24:17;;;;;;;0.57;0.57;;;;;;;7.00;90.32;94623.91;4969143;28;20173;-69
2023/12/07 08:26:43;;;;;;;0.63;0.63;;;;;;;6.89;89.67;94637.53;4970115;28;20178;-68
2023/12/07 08:29:08;;;;;;;0.70;0.70;;;;;;;6.75;89.47;94631.41;4968746;28;20182;-68
2023/12/07 08:31:34;;;;;;;0.40;0.40;;;;;;;6.78;89.99;94641.50;4974532;28;20185;-69
2023/12/07 08:34:00;;;;;;;0.87;0.87;;;;;;;6.77;90.19;94639.88;4989637;28;20793;-68
2023/12/07 08:36:26;;;;;;;0.70;0.70;;;;;;;6.82;90.02;94647.97;4984921;28;20181;-68
2023/12/07 08:38:52;;;;;;;1.23;0.90;;;;;;;6.83;89.29;94649.59;4969982;28;20173;-68
2023/12/07 08:41:18;;;;;;;0.40;0.40;;;;;;;6.86;89.21;94648.38;4969206;28;20217;-69
2023/12/07 08:43:43;;;;;;;0.40;0.40;;;;;;;6.83;89.08;94652.22;4968397;28;20182;-69
2023/12/07 08:46:09;;;;;;;0.40;0.40;;;;;;;6.67;88.38;94639.41;4970032;28;20996;-69
2023/12/07 08:48:37;;;;;;;3.90;3.13;;;;;;;6.72;89.13;94648.31;4969933;28;20178;-69
2023/12/07 08:51:03;;;;;;;0.50;0.50;;;;;;;6.67;89.05;94650.69;4968246;28;20186;-70
2023/12/07 08:53:28;;;;;;;1.00;1.00;;;;;;;6.69;88.72;94663.56;4969957;28;20225;-69
2023/12/07 08:55:55;;;;;;;0.40;0.40;;;;;;;6.69;89.31;94651.31;4969885;28;20182;-69
2023/12/07 08:58:20;;;;;;;0.37;0.37;;;;;;;6.78;88.90;94657.19;4968509;28;20178;-70
2023/12/07 09:00:46;;;;;;;3.47;1.70;;;;;;;6.82;88.65;94663.69;4971392;28;20188;-69
2023/12/07 09:03:13;;;;;;;0.53;0.53;;;;;;;6.75;88.38;94650.53;4973577;28;20248;-69
2023/12/07 09:05:38;;;;;;;0.30;0.30;;;;;;;6.82;88.02;94654.03;4972126;28;20328;-69
2023/12/07 09:08:04;;;;;;;0.30;0.30;;;;;;;6.83;88.21;94658.22;4973709;28;20264;-69
2023/12/07 09:10:30;;;;;;;0.40;0.40;;;;;;;6.84;87.76;94661.66;4973058;28;20185;-69
2023/12/07 09:12:56;;;;;;;0.50;0.50;;;;;;;6.76;87.62;94662.63;4972688;28;20198;-69
2023/12/07 09:15:21;;;;;;;0.70;0.70;;;;;;;6.66;87.47;94656.91;4972330;28;20235;-66
2023/12/07 09:17:48;;;;;;;0.47;0.47;;;;;;;6.55;88.04;94661.88;4972826;28;20174;-67
2023/12/07 09:20:14;;;;;;;0.60;0.60;;;;;;;6.54;88.76;94660.25;4972316;28;20174;-68
2023/12/07 09:22:45;;;;;;;0.50;0.50;;;;;;;6.53;88.59;94656.03;4972972;28;20169;-67
2023/12/07 09:25:12;;;;;;;1.40;0.90;;;;;;;6.55;88.45;94656.66;4972429;28;20248;-67
2023/12/07 09:27:38;;;;;;;0.50;0.50;;;;;;;6.43;88.95;94640.69;4969912;28;20217;-67
2023/12/07 09:30:11;;;;;;;0.53;0.53;;;;;;;6.57;89.20;94660.69;4971847;28;20277;-68
2023/12/07 09:32:42;;;;;;;0.90;0.90;;;;;;;6.56;88.46;94655.66;4971467;28;20193;-68
2023/12/07 09:35:18;;;;;;;0.40;0.40;;;;;;;6.58;88.94;94651.81;4973120;28;20216;-68
2023/12/07 09:37:45;;;;;;;2.33;2.13;;;;;;;6.61;89.33;94655.88;4972585;28;20189;-69
2023/12/07 09:40:21;;;;;;;1.27;1.27;;;;;;;6.63;88.88;94653.88;4970608;28;20182;-69
2023/12/07 09:42:47;;;;;;;0.50;0.50;;;;;;;6.57;88.99;94665.94;4973099;28;20205;-68
2023/12/07 09:45:18;;;;;;;0.60;0.60;;;;;;;6.66;89.31;94661.38;4973453;28;20619;-69
2023/12/07 09:47:47;;;;;;;0.63;0.63;;;;;;;6.67;88.43;94661.16;4971963;28;20170;-67
2023/12/07 09:50:21;;;;;;;0.50;0.50;;;;;;;6.76;88.84;94661.81;4972755;28;20205;-67
2023/12/07 09:52:49;;;;;;;0.40;0.40;;;;;;;6.75;88.44;94660.19;4971775;28;20201;-68
2023/12/07 09:55:16;;;;;;;0.40;0.40;;;;;;;6.78;87.58;94662.44;4972567;28;20177;-69
2023/12/07 09:57:42;;;;;;;0.43;0.43;;;;;;;6.72;87.01;94663.19;4972771;28;20193;-67
2023/12/07 10:00:10;;;;;;;0.50;0.50;;;;;;;6.54;86.49;94649.81;4969829;28;20220;-68
2023/12/07 10:02:38;;;;;;;0.50;0.50;;;;;;;6.60;86.90;94669.94;4972612;28;20166;-67
2023/12/07 10:05:13;;;;;;;0.70;0.70;;;;;;;6.52;86.55;94657.84;4972622;28;20205;-68
2023/12/07 10:07:48;;;;;;;0.40;0.40;;;;;;;6.41;87.29;94667.00;4970701;28;20243;-68
2023/12/07 10:10:15;;;;;;;0.50;0.50;;;;;;;6.35;87.88;94662.53;4972320;28;20176;-67
2023/12/07 10:12:52;;;;;;;0.40;0.40;;;;;;;6.28;87.69;94666.09;4969027;28;20206;-68
2023/12/07 10:15:19;;;;;;;6.63;3.83;;;;;;;6.26;88.38;94662.84;4971653;28;20181;-70
2023/12/07 10:17:49;;;;;;;0.43;0.43;;;;;;;6.16;88.30;94657.16;4972386;28;20257;-68
2023/12/07 10:20:18;;;;;;;0.40;0.40;;;;;;;6.13;88.46;94660.97;4970606;28;20205;-68
2023/12/07 10:22:45;;;;;;;0.50;0.50;;;;;;;6.10;88.26;94656.09;4972048;28;20185;-68
2023/12/07 10:25:11;;;;;;;0.40;0.40;;;;;;;6.05;88.38;94655.88;4972384;28;20185;-68
2023/12/07 10:27:38;;;;;;;0.60;0.60;;;;;;;5.96;88.52;94657.81;4970691;28;20638;-69
2023/12/07 10:30:06;;;;;;;0.60;0.60;;;;;;;5.94;89.52;94654.56;4972005;28;20790;-68
2023/12/07 10:32:36;;;;;;;0.60;0.60;;;;;;;5.89;89.81;94645.66;4972055;28;20298;-69
2023/12/07 10:35:01;;;;;;;0.40;0.40;;;;;;;5.99;89.49;94661.81;4970904;28;20193;-67
2023/12/07 10:37:28;;;;;;;1.00;1.00;;;;;;;5.90;89.43;94632.41;4971362;28;20196;-67
2023/12/07 10:39:55;;;;;;;2.03;1.33;;;;;;;6.00;89.13;94659.03;4972333;28;20243;-68
2023/12/07 10:42:24;;;;;;;0.40;0.40;;;;;;;6.04;88.86;94651.63;4970849;28;20206;-68
2023/12/07 10:44:52;;;;;;;1.00;1.00;;;;;;;6.02;88.56;94651.00;4972319;28;20178;-67
2023/12/07 10:47:19;;;;;;;0.40;0.40;;;;;;;5.89;89.00;94654.28;4972434;28;20162;-68
2023/12/07 10:49:48;;;;;;;0.40;0.40;;;;;;;5.94;89.03;94653.75;4972152;28;20194;-67
2023/12/07 10:52:22;;;;;;;0.50;0.50;;;;;;;5.71;88.40;94640.06;4972212;28;20229;-68
2023/12/07 10:54:59;;;;;;;0.40;0.40;;;;;;;5.66;89.08;94667.50;4972645;28;20193;-67
2023/12/07 10:57:24;;;;;;;0.40;0.40;;;;;;;5.58;89.20;94659.78;4972773;28;20184;-67
2023/12/07 10:59:52;;;;;;;1.27;1.17;;;;;;;5.60;89.75;94663.03;4972387;28;20665;-67
2023/12/07 11:02:20;;;;;;;0.83;0.83;;;;;;;5.65;90.20;94660.66;4972082;28;20327;-67
2023/12/07 11:04:46;;;;;;;0.70;0.70;;;;;;;5.67;89.48;94669.13;4973262;28;20178;-67
2023/12/07 11:07:17;;;;;;;1.63;1.53;;;;;;;5.72;89.34;94665.94;4972799;28;20660;-67
2023/12/07 11:09:47;;;;;;;0.40;0.40;;;;;;;5.73;89.24;94666.75;4970419;28;20612;-67
2023/12/07 11:12:20;;;;;;;0.40;0.40;;;;;;;5.61;88.69;94649.00;4972454;28;20574;-67
2023/12/07 11:14:46;;;;;;;0.60;0.60;;;;;;;5.67;88.94;94666.53;4972788;28;20263;-67
2023/12/07 11:17:12;;;;;;;0.60;0.60;;;;;;;5.65;88.70;94667.69;4972498;28;20205;-68
2023/12/07 11:19:42;;;;;;;0.40;0.40;;;;;;;5.62;88.88;94666.25;4971755;28;20260;-67
2023/12/07 11:22:09;;;;;;;0.47;0.47;;;;;;;5.59;89.18;94655.38;4972111;28;20170;-67
2023/12/07 11:24:36;;;;;;;0.70;0.70;;;;;;;5.61;89.10;94656.81;4971782;28;20170;-67
2023/12/07 11:27:01;;;;;;;0.40;0.40;;;;;;;5.59;88.71;94664.03;4971267;28;20181;-67
2023/12/07 11:29:31;;;;;;;0.40;0.40;;;;;;;5.61;88.60;94664.66;4970942;28;20562;-67
2023/12/07 11:32:06;;;;;;;1.23;1.23;;;;;;;5.61;89.03;94663.84;4970664;28;20209;-67
2023/12/07 11:34:35;;;;;;;0.57;0.57;;;;;;;5.57;88.81;94659.97;4971550;28;20200;-67
2023/12/07 11:37:04;;;;;;;1.63;1.57;;;;;;;5.60;89.02;94660.44;4977848;28;20181;-67
2023/12/07 11:39:36;;;;;;;0.50;0.50;;;;;;;5.63;89.28;94657.44;4971759;28;20184;-67
2023/12/07 11:42:12;;;;;;;0.40;0.40;;;;;;;5.69;89.30;94650.66;4971428;28;20214;-67
2023/12/07 11:44:40;;;;;;;0.50;0.50;;;;;;;5.68;89.25;94654.28;4971519;28;20185;-67
2023/12/07 11:47:06;;;;;;;0.70;0.70;;;;;;;5.72;89.22;94649.47;4970208;28;20320;-67
2023/12/07 11:49:32;;;;;;;0.70;0.70;;;;;;;5.76;89.51;94645.50;4970333;28;20177;-67
2023/12/07 11:51:59;;;;;;;0.57;0.57;;;;;;;5.77;89.12;94647.94;4970356;28;20206;-68